Terminal Aerodrome Forecast
Issued by NWS

Current Version | Previous Version | Text Only | Print | Product List | Glossary Off
Versions: 1 2 3 4 5 6 7 8 9 10 11 12 13 14 15 16 17 18 19 20

000
FTUS41 KPBZ 230047 AAA
TAFHLG
TAF AMD
KHLG 230047Z 2301/2324 24005KT P6SM VCSH BKN050
     FM230400 28004KT P6SM BKN025
     FM231100 33006KT P6SM SCT010
     FM231600 33006KT P6SM SCT025=

USA.gov is the U.S. government's official web portal to all federal, state and local government web resources and services.